DW8495 Ramrod Key FL US current weather conditions

sailwx.info

Wind from 079 at 6 knots gusting 9

Air temperature 30.6° C
Dewpoint 24.7° C

Last reported at 2020-Oct-01 16:00 UTC.
Time now 2020-Oct-01 17:00 UTC

Location: N 24°39' W 081°24'.
View on Google Maps.

See reports from other nearby stations

  
Tides and Currents Weather Stations Pressure Air Temp Water Temp Dewpoint Dewpoint Depression Visibility Wind Speed Wind Dir Waves Ship Positions
date/time (UTC)wind fromknots sea level pressurealtimeterstation pressurevisibilityair tempwater tempwave heightnotes
2020-Oct-01 16:00 079 6 gusting 9 30.6
2020-Oct-01 15:50 093 6 gusting 10 30.6
2020-Oct-01 15:40 090 6 gusting 9 30.6
2020-Oct-01 15:30 101 6 gusting 9 30.6
2020-Oct-01 15:22 076 6 gusting 9 30.0
2020-Oct-01 15:15 095 6 gusting 10 29.4
2020-Oct-01 14:50 075 6 gusting 8 29.4
2020-Oct-01 14:20 068 6 gusting 9 28.9
2020-Oct-01 14:00 081 6 gusting 9 29.4
2020-Oct-01 13:50 068 6 gusting 9 29.4
2020-Oct-01 13:20 059 6 gusting 8 29.4
2020-Oct-01 13:10 062 6 gusting 9 28.9
2020-Oct-01 12:40 060 4 gusting 9 28.3
2020-Oct-01 12:30 068 5 gusting 9 27.8
2020-Oct-01 12:00 056 3 gusting 7 27.8
2020-Oct-01 11:40 058 3 gusting 6 27.8
2020-Oct-01 11:20 051 3 gusting 6 27.2
2020-Oct-01 10:40 003 2 gusting 3 27.2
2020-Oct-01 10:30 047 3 gusting 6 27.2
2020-Oct-01 10:20 081 4 gusting 7 26.7
2020-Oct-01 09:20 059 6 gusting 12 27.2
2020-Oct-01 09:10 047 4 gusting 12 27.8
2020-Oct-01 08:50 011 1 gusting 3 27.2
2020-Oct-01 08:40 336 1 gusting 3 27.2
2020-Oct-01 08:30 328 2 gusting 3 27.8
2020-Oct-01 08:20 348 3 gusting 6 27.8
2020-Oct-01 08:00 337 0 gusting 2 27.8
2020-Oct-01 07:50 130 27.8
2020-Oct-01 07:30 138 2 gusting 5 27.8
2020-Oct-01 07:10 134 5 gusting 8 27.8
2020-Oct-01 06:50 114 6 gusting 9 28.3
2020-Oct-01 06:40 045 3 gusting 6 28.3
2020-Oct-01 06:30 035 0 gusting 4 28.3
2020-Oct-01 06:20 016 1 gusting 3 28.3
2020-Oct-01 06:10 067 2 gusting 4 28.3
2020-Oct-01 05:50 076 5 gusting 7 29.4
2020-Oct-01 05:10 086 9 gusting 14 29.4
2020-Oct-01 05:00 081 6 gusting 9 29.4
2020-Oct-01 04:30 094 6 gusting 11 29.4
2020-Oct-01 04:20 087 7 gusting 11 29.4
2020-Oct-01 04:00 080 6 gusting 9 29.4
2020-Oct-01 03:50 085 6 gusting 10 29.4
2020-Oct-01 03:30 085 6 gusting 9 29.4
2020-Oct-01 03:20 081 5 gusting 7 29.4
2020-Oct-01 03:00 077 5 gusting 8 29.4
2020-Oct-01 02:50 064 6 gusting 10 29.4
2020-Oct-01 02:40 054 6 gusting 10 29.4
2020-Oct-01 02:30 075 6 gusting 10 29.4
2020-Oct-01 02:20 075 6 gusting 11 29.4
2020-Oct-01 02:10 071 6 gusting 10 29.4
2020-Oct-01 01:50 061 6 gusting 11 29.4
2020-Oct-01 01:40 067 6 gusting 12 29.4
2020-Oct-01 01:30 058 7 gusting 13 28.3
2020-Oct-01 01:10 068 7 gusting 11 29.4
2020-Oct-01 00:00 087 3 gusting 6 29.4
2020-Sep-30 23:50 077 3 gusting 6 29.4
2020-Sep-30 23:30 074 3 gusting 5 29.4
2020-Sep-30 23:10 060 3 gusting 6 29.4
2020-Sep-30 23:00 059 5 gusting 6 29.4
2020-Sep-30 22:50 075 5 gusting 9 29.4
2020-Sep-30 22:40 058 5 gusting 7 29.4
2020-Sep-30 22:30 057 6 gusting 9 29.4
2020-Sep-30 22:20 065 6 gusting 9 30.0
2020-Sep-30 22:10 079 6 gusting 8 30.0
2020-Sep-30 22:00 085 4 gusting 7 30.0
2020-Sep-30 21:50 092 4 gusting 6 30.0
2020-Sep-30 21:00 132 2 gusting 5 31.1
2020-Sep-30 20:40 175 2 gusting 6 32.2
2020-Sep-30 20:30 172 2 gusting 5 32.2
2020-Sep-30 19:50 175 2 gusting 5 32.8
2020-Sep-30 19:40 182 2 gusting 6 32.2
2020-Sep-30 19:10 187 2 gusting 5 32.2
2020-Sep-30 19:00 190 2 gusting 4 32.2
2020-Sep-30 18:40 195 2 gusting 5 32.2
2020-Sep-30 18:30 191 2 gusting 5 32.2
2020-Sep-30 18:20 217 1 gusting 4 32.2
2020-Sep-30 18:10 142 2 gusting 3 31.7
2020-Sep-30 18:00 161 2 gusting 6 31.7
2020-Sep-30 17:40 113 4 gusting 6 31.7
2020-Sep-30 17:20 099 4 gusting 6 31.7
2020-Sep-30 17:10 143 2 gusting 6 31.7
2020-Sep-30 17:00 129 3 gusting 6 31.7
2020-Sep-30 16:50 139 2 gusting 5 31.7
2020-Sep-30 16:00 142 4 gusting 6 31.1
2020-Sep-30 15:50 143 5 gusting 7 31.1
2020-Sep-30 15:40 122 5 gusting 8 31.1
2020-Sep-30 15:20 140 6 gusting 8 31.1
2020-Sep-30 15:10 112 4 gusting 7 31.1
2020-Sep-30 14:50 132 4 gusting 6 30.6
2020-Sep-30 14:30 136 4 gusting 6 30.6
2020-Sep-30 14:00 109 4 gusting 8 30.6
2020-Sep-30 13:40 132 4 gusting 6 30.6
2020-Sep-30 13:30 118 4 gusting 6 30.6
2020-Sep-30 13:20 116 3 gusting 6 30.6
2020-Sep-30 13:10 115 4 gusting 6 30.0
2020-Sep-30 12:50 115 4 gusting 7 30.0
2020-Sep-30 12:20 132 2 gusting 4 29.4
2020-Sep-30 12:10 135 2 gusting 3 28.9
2020-Sep-30 11:50 135 28.3
2020-Sep-30 11:20 140 0 gusting 3 28.3
2020-Sep-30 11:10 135 28.3
2020-Sep-30 10:50 167 0 gusting 3 28.3
2020-Sep-30 10:40 161 0 gusting 3 28.3
2020-Sep-30 10:30 166 0 gusting 3 28.3
2020-Sep-30 10:10 138 0 gusting 1 28.3
2020-Sep-30 10:00 152 1 gusting 3 28.3
2020-Sep-30 09:40 142 0 gusting 2 28.3
2020-Sep-30 09:10 142 1 gusting 4 28.3
2020-Sep-30 09:00 150 1 gusting 3 28.3
2020-Sep-30 08:40 147 1 gusting 3 28.3
2020-Sep-30 08:30 129 1 gusting 3 28.3
2020-Sep-30 08:20 141 0 gusting 1 27.8
2020-Sep-30 07:50 021 0 gusting 1 27.8
2020-Sep-30 07:20 090 27.8
2020-Sep-30 07:00 078 1 gusting 2 27.8
2020-Sep-30 06:20 168 1 gusting 4 28.3
2020-Sep-30 06:10 177 2 gusting 3 28.3
2020-Sep-30 05:50 165 1 gusting 3 28.3
2020-Sep-30 05:40 172 1 gusting 2 28.3
2020-Sep-30 05:20 151 0 gusting 2 28.3
2020-Sep-30 04:00 162 1 gusting 4 28.3
2020-Sep-30 03:40 148 1 gusting 3 28.3
2020-Sep-30 03:30 157 0 gusting 1 28.3
2020-Sep-30 03:20 176 1 gusting 3 28.3
2020-Sep-30 03:00 164 1 gusting 3 28.3
2020-Sep-30 02:20 135 29.4
2020-Sep-30 02:10 160 0 gusting 2 29.4
2020-Sep-30 02:00 176 0 gusting 3 29.4
2020-Sep-30 01:50 158 0 gusting 3 29.4
2020-Sep-30 01:40 182 0 gusting 3 29.4
2020-Sep-30 01:30 168 1 gusting 3 29.4
2020-Sep-30 01:10 186 1 gusting 3 29.4
2020-Sep-30 01:00 205 2 gusting 3 29.4
2020-Sep-30 00:50 204 1 gusting 3 29.4
2020-Sep-30 00:40 201 2 gusting 4 29.4
2020-Sep-30 00:20 197 2 gusting 6 29.4
2020-Sep-30 00:10 181 1 gusting 4 29.4
2020-Sep-29 23:40 181 2 gusting 5 29.4
2020-Sep-29 23:30 171 2 gusting 5 29.4
2020-Sep-29 23:00 170 3 gusting 6 30.0
2020-Sep-29 22:50 177 4 gusting 7 30.0
2020-Sep-29 22:40 172 4 gusting 8 30.6
2020-Sep-29 22:30 175 4 gusting 8 30.6
2020-Sep-29 22:20 176 4 gusting 7 30.6
2020-Sep-29 22:10 177 6 gusting 7 30.6
2020-Sep-29 22:00 174 5 gusting 9 30.6
2020-Sep-29 21:40 175 6 gusting 10 30.6
2020-Sep-29 21:20 203 6 gusting 12 30.6
2020-Sep-29 21:10 184 6 gusting 9 30.6
2020-Sep-29 20:40 187 6 gusting 13 30.6
2020-Sep-29 20:30 184 5 gusting 11 31.1
2020-Sep-29 20:20 175 6 gusting 11 31.1
2020-Sep-29 20:00 162 5 gusting 9 31.1
2020-Sep-29 19:50 158 6 gusting 9 31.1
2020-Sep-29 19:40 171 6 gusting 13 31.1
2020-Sep-29 19:30 164 7 gusting 13 31.1
2020-Sep-29 19:10 168 5 gusting 10 31.7
2020-Sep-29 18:40 161 6 gusting 11 31.1
2020-Sep-29 18:10 167 7 gusting 13 30.6
2020-Sep-29 18:00 160 6 gusting 13 31.1
2020-Sep-29 17:50 158 6 gusting 11 31.1
2020-Sep-29 17:40 144 6 gusting 13 30.6
2020-Sep-29 17:20 160 7 gusting 13 31.1
2020-Sep-29 17:10 143 7 gusting 13 31.1